Dodge, North Dakota
Current Conditions -  °F | °C
As of 3:55 PM on Tuesday 25 Nov 2014 (Local Time) from KHZE Reporting Station
Light Snow Light Snow  
Wind Chill: 27°   Ceiling: Unl
Heat Index: 32°   Visibility: 3mi
Dew Point: 32°   Wind: 5mph
Humidity: 100%   Direction: 280°W
Pressure: 29.72"   Gusts: NA
Location:  47.31°N, 102.2°W
Report Text: KHZE 252255Z AUTO 28004KT 3SM -SN FEW003 FEW007 00/00 A2972 RMK AO2 P0019
Loading
Personal Weather Stations






























Interactive Weather Map New forecast layout! Learn more

10-Day Weather Forecast

Advertisements
Track Severe Weather on mobile